To NAV CANADA Home Page Login to a new session Search on AWWS site Feedback and Comments Disclaimer Vers la page française équivalente Tips FAQ What's new on the site To the Forecasts and Observations / NOTAM section To "File a Flight Plan" website Publications and other links Update of the User's profile FIC Telephone Numbers My Weather Data Folder Route Weather Data Regional Weather Data Local Weather Data To the Forecasts and Observations / NOTAM section
Request Generated 04/18/2014 at 00:38:23 UTC . Weather information available at that time is displayed.

METAR/TAF

BAKER LAKE/NU    

METAR CYBK 180000Z 32010KT 20SM SKC M17/M20 A3024 RMK SLP242=
METAR CYBK 172300Z 31009KT 20SM SKC M16/M20 A3023 RMK SLP240=
METAR CYBK 172200Z 33017KT 20SM SKC M16/M20 A3020 RMK SLP230=

TAF CYBK 172338Z 1800/1812 31010KT P6SM SKC
BECMG 1806/1808 VRB03KT
RMK NXT FCST BY 180600Z=
Your time UTC time
Weather data provided by Environment Canada and NAV CANADA